Terminal Aerodrome Forecast
Issued by NWS Shreveport, LA

Home | Current Version | Previous Version | Text Only | Print | Product List | Glossary On
Versions: 1 2 3 4 5 6 7 8 9 10 11 12 13 14 15 16 17 18 19 20 21
000
FTUS44 KSHV 231700
TAFMLU
TAF
KMLU 231740Z 2318/2418 VRB04KT P6SM FEW040
     FM240000 13004KT P6SM SKC
     FM241200 18004KT 4SM BR SCT250
     FM241600 19012G18KT P6SM SCT040 BKN250=

USA.gov is the U.S. government's official web portal to all federal, state and local government web resources and services.